首页
METAR-TAF:

METAR-TAF

机场 :

瓦岱國際機場

永珍, 老挝

纬度: 17-57N, 经度: 102-34E, 海拔: 171米

当前天气观测

该预报发布于19分钟前的00:30 UTC
静风
温度 22°C
湿度 88%
气压 1012 hPa
能見度: 5000
散云层高于2000英尺
轻雾

METAR: VLVT 220030Z 00000KT 5000 BR SCT020 22/20 Q1012 NOSIG

时间: 07:49 (00:49 UTC)

预报

该预报发布于1小时和49分钟前的23:00 UTC
预报有效从22日的 00点(UTC)到 22日的 24点(UTC)
风速4节,风向西转西北
能見度: 7000
散云层高于2000英尺
短暂存在
从 22日的 13点(UTC)到 22日的 19点(UTC)
能見度: 4000
散云层高于5000英尺
轻雾

TAF: VLVT 212300Z 2200/2224 30004KT 7000 SCT020 TEMPO 2213/2219 4000 BR SCT050

超过4000个机场的气象观测和天气预报(METAR&TAF报告)。

可查询的气象台以黄色和红色小点在地图上表示。

将鼠标移到小点上方,可查看气象台名称。

然后点击查看天气观测和预报。

如需切换地图:点击带黑十字的绿色按钮放大地图;点击带横线的绿色按钮缩小地图;或者点击绿色箭头查看邻近地区的地图。


METAR-TAF: